sensor_id;sensor_type;location;lat;lon;timestamp;temperature;humidity
26103;DHT22;69760;49.380;8.998;2023-06-14T00:00:37;19.60;58.60
26103;DHT22;69760;49.380;8.998;2023-06-14T00:03:07;19.60;58.90
26103;DHT22;69760;49.380;8.998;2023-06-14T00:05:38;19.60;59.20
26103;DHT22;69760;49.380;8.998;2023-06-14T00:08:09;19.60;59.30
26103;DHT22;69760;49.380;8.998;2023-06-14T00:10:35;19.50;59.10
26103;DHT22;69760;49.380;8.998;2023-06-14T00:13:04;19.50;59.70
26103;DHT22;69760;49.380;8.998;2023-06-14T00:15:31;19.50;59.80
26103;DHT22;69760;49.380;8.998;2023-06-14T00:18:00;19.40;59.80
26103;DHT22;69760;49.380;8.998;2023-06-14T00:20:29;19.40;59.50
26103;DHT22;69760;49.380;8.998;2023-06-14T00:22:56;19.30;59.90
26103;DHT22;69760;49.380;8.998;2023-06-14T00:25:22;19.30;59.70
26103;DHT22;69760;49.380;8.998;2023-06-14T00:27:51;19.30;59.90
26103;DHT22;69760;49.380;8.998;2023-06-14T00:30:17;19.20;59.90
26103;DHT22;69760;49.380;8.998;2023-06-14T00:32:43;19.20;60.10
26103;DHT22;69760;49.380;8.998;2023-06-14T00:35:09;19.20;60.00
26103;DHT22;69760;49.380;8.998;2023-06-14T00:37:35;19.20;60.40
26103;DHT22;69760;49.380;8.998;2023-06-14T00:40:01;19.20;60.50
26103;DHT22;69760;49.380;8.998;2023-06-14T00:42:27;19.20;60.30
26103;DHT22;69760;49.380;8.998;2023-06-14T00:44:54;19.20;60.70
26103;DHT22;69760;49.380;8.998;2023-06-14T00:47:20;19.20;61.10
26103;DHT22;69760;49.380;8.998;2023-06-14T00:49:46;19.10;61.30
26103;DHT22;69760;49.380;8.998;2023-06-14T00:52:13;19.10;62.30
26103;DHT22;69760;49.380;8.998;2023-06-14T00:54:40;19.10;61.70
26103;DHT22;69760;49.380;8.998;2023-06-14T00:57:06;19.10;62.20
26103;DHT22;69760;49.380;8.998;2023-06-14T00:59:33;19.20;63.20
26103;DHT22;69760;49.380;8.998;2023-06-14T01:01:59;19.10;63.80
26103;DHT22;69760;49.380;8.998;2023-06-14T01:04:24;19.10;65.20
26103;DHT22;69760;49.380;8.998;2023-06-14T01:12:35;18.80;65.10
26103;DHT22;69760;49.380;8.998;2023-06-14T01:15:02;18.60;64.80
26103;DHT22;69760;49.380;8.998;2023-06-14T01:17:29;18.50;63.70
26103;DHT22;69760;49.380;8.998;2023-06-14T01:19:58;18.40;64.70
26103;DHT22;69760;49.380;8.998;2023-06-14T01:22:28;18.40;64.50
26103;DHT22;69760;49.380;8.998;2023-06-14T01:24:54;18.40;64.50
26103;DHT22;69760;49.380;8.998;2023-06-14T01:27:24;18.30;64.10
26103;DHT22;69760;49.380;8.998;2023-06-14T01:29:55;18.30;64.20
26103;DHT22;69760;49.380;8.998;2023-06-14T01:32:26;18.30;65.50
26103;DHT22;69760;49.380;8.998;2023-06-14T01:34:53;18.30;64.30
26103;DHT22;69760;49.380;8.998;2023-06-14T01:37:20;18.20;65.30
26103;DHT22;69760;49.380;8.998;2023-06-14T01:39:48;18.10;65.90
26103;DHT22;69760;49.380;8.998;2023-06-14T01:42:15;18.10;66.40
26103;DHT22;69760;49.380;8.998;2023-06-14T01:44:42;18.10;66.20
26103;DHT22;69760;49.380;8.998;2023-06-14T01:47:09;18.00;66.90
26103;DHT22;69760;49.380;8.998;2023-06-14T01:49:35;18.10;66.40
26103;DHT22;69760;49.380;8.998;2023-06-14T01:52:01;18.00;64.80
26103;DHT22;69760;49.380;8.998;2023-06-14T01:54:27;17.90;65.70
26103;DHT22;69760;49.380;8.998;2023-06-14T01:56:52;17.90;66.10
26103;DHT22;69760;49.380;8.998;2023-06-14T01:59:18;17.90;65.50
26103;DHT22;69760;49.380;8.998;2023-06-14T02:01:44;17.90;65.70
26103;DHT22;69760;49.380;8.998;2023-06-14T02:04:11;18.00;66.50
26103;DHT22;69760;49.380;8.998;2023-06-14T02:06:37;18.00;66.00
26103;DHT22;69760;49.380;8.998;2023-06-14T02:09:03;17.90;65.20
26103;DHT22;69760;49.380;8.998;2023-06-14T02:11:29;17.90;64.60
26103;DHT22;69760;49.380;8.998;2023-06-14T02:13:55;17.90;65.50
26103;DHT22;69760;49.380;8.998;2023-06-14T02:16:21;18.00;65.60
26103;DHT22;69760;49.380;8.998;2023-06-14T02:18:47;17.90;66.50
26103;DHT22;69760;49.380;8.998;2023-06-14T02:21:14;17.90;67.20
26103;DHT22;69760;49.380;8.998;2023-06-14T02:23:39;18.00;66.90
26103;DHT22;69760;49.380;8.998;2023-06-14T02:26:05;17.90;66.70
26103;DHT22;69760;49.380;8.998;2023-06-14T02:28:31;17.90;67.10
26103;DHT22;69760;49.380;8.998;2023-06-14T02:30:56;17.90;67.20
26103;DHT22;69760;49.380;8.998;2023-06-14T02:33:22;17.90;66.30
26103;DHT22;69760;49.380;8.998;2023-06-14T02:35:48;17.90;65.60
26103;DHT22;69760;49.380;8.998;2023-06-14T02:38:13;17.80;65.60
26103;DHT22;69760;49.380;8.998;2023-06-14T02:40:39;17.80;66.70
26103;DHT22;69760;49.380;8.998;2023-06-14T02:43:07;17.80;66.60
26103;DHT22;69760;49.380;8.998;2023-06-14T02:45:33;17.80;67.10
26103;DHT22;69760;49.380;8.998;2023-06-14T02:47:58;17.80;66.40
26103;DHT22;69760;49.380;8.998;2023-06-14T02:50:24;17.90;66.40
26103;DHT22;69760;49.380;8.998;2023-06-14T02:52:50;17.90;66.50
26103;DHT22;69760;49.380;8.998;2023-06-14T02:55:15;17.90;66.50
26103;DHT22;69760;49.380;8.998;2023-06-14T02:57:41;17.90;66.80
26103;DHT22;69760;49.380;8.998;2023-06-14T03:00:07;17.90;67.20
26103;DHT22;69760;49.380;8.998;2023-06-14T03:02:35;17.90;67.50
26103;DHT22;69760;49.380;8.998;2023-06-14T03:05:01;17.80;67.20
26103;DHT22;69760;49.380;8.998;2023-06-14T03:07:28;17.80;67.10
26103;DHT22;69760;49.380;8.998;2023-06-14T03:09:55;17.70;67.50
26103;DHT22;69760;49.380;8.998;2023-06-14T03:12:20;17.70;67.80
26103;DHT22;69760;49.380;8.998;2023-06-14T03:14:46;17.70;67.90
26103;DHT22;69760;49.380;8.998;2023-06-14T03:17:12;17.60;68.10
26103;DHT22;69760;49.380;8.998;2023-06-14T03:19:37;17.60;68.10
26103;DHT22;69760;49.380;8.998;2023-06-14T03:22:03;17.50;68.10
26103;DHT22;69760;49.380;8.998;2023-06-14T03:24:29;17.50;68.50
26103;DHT22;69760;49.380;8.998;2023-06-14T03:26:54;17.50;68.60
26103;DHT22;69760;49.380;8.998;2023-06-14T03:29:20;17.40;68.50
26103;DHT22;69760;49.380;8.998;2023-06-14T03:32:00;17.40;68.50
26103;DHT22;69760;49.380;8.998;2023-06-14T03:34:26;17.40;68.90
26103;DHT22;69760;49.380;8.998;2023-06-14T03:36:52;17.30;69.10
26103;DHT22;69760;49.380;8.998;2023-06-14T03:39:18;17.30;69.40
26103;DHT22;69760;49.380;8.998;2023-06-14T03:41:44;17.30;69.80
26103;DHT22;69760;49.380;8.998;2023-06-14T03:44:09;17.20;70.10
26103;DHT22;69760;49.380;8.998;2023-06-14T03:46:35;17.20;71.50
26103;DHT22;69760;49.380;8.998;2023-06-14T03:49:01;17.10;71.20
26103;DHT22;69760;49.380;8.998;2023-06-14T03:51:28;17.10;71.60
26103;DHT22;69760;49.380;8.998;2023-06-14T03:53:54;17.00;71.60
26103;DHT22;69760;49.380;8.998;2023-06-14T03:56:21;17.00;71.70
26103;DHT22;69760;49.380;8.998;2023-06-14T03:58:47;17.00;71.70
26103;DHT22;69760;49.380;8.998;2023-06-14T04:01:12;17.00;71.60
26103;DHT22;69760;49.380;8.998;2023-06-14T04:03:38;17.00;71.60
26103;DHT22;69760;49.380;8.998;2023-06-14T04:06:05;17.00;71.70
26103;DHT22;69760;49.380;8.998;2023-06-14T04:08:31;17.00;72.40
26103;DHT22;69760;49.380;8.998;2023-06-14T04:10:57;16.90;72.70
26103;DHT22;69760;49.380;8.998;2023-06-14T04:13:22;16.90;74.30
26103;DHT22;69760;49.380;8.998;2023-06-14T04:15:48;16.80;75.10
26103;DHT22;69760;49.380;8.998;2023-06-14T04:18:14;16.80;73.70
26103;DHT22;69760;49.380;8.998;2023-06-14T04:20:39;16.70;74.50
26103;DHT22;69760;49.380;8.998;2023-06-14T04:23:16;16.70;74.50
26103;DHT22;69760;49.380;8.998;2023-06-14T04:25:43;16.60;76.10
26103;DHT22;69760;49.380;8.998;2023-06-14T04:28:11;16.60;76.30
26103;DHT22;69760;49.380;8.998;2023-06-14T04:30:37;16.70;77.20
26103;DHT22;69760;49.380;8.998;2023-06-14T04:33:07;16.70;77.20
26103;DHT22;69760;49.380;8.998;2023-06-14T04:35:32;16.60;75.10
26103;DHT22;69760;49.380;8.998;2023-06-14T04:38:01;16.60;74.60
26103;DHT22;69760;49.380;8.998;2023-06-14T04:40:27;16.60;74.00
26103;DHT22;69760;49.380;8.998;2023-06-14T04:42:53;16.70;74.50
26103;DHT22;69760;49.380;8.998;2023-06-14T04:45:19;16.80;75.30
26103;DHT22;69760;49.380;8.998;2023-06-14T04:47:45;16.90;76.10
26103;DHT22;69760;49.380;8.998;2023-06-14T04:50:11;16.90;75.50
26103;DHT22;69760;49.380;8.998;2023-06-14T04:52:38;17.00;74.60
26103;DHT22;69760;49.380;8.998;2023-06-14T04:55:04;17.00;74.90
26103;DHT22;69760;49.380;8.998;2023-06-14T04:57:31;17.00;75.40
26103;DHT22;69760;49.380;8.998;2023-06-14T04:59:57;17.10;74.60
26103;DHT22;69760;49.380;8.998;2023-06-14T05:02:23;17.10;74.50
26103;DHT22;69760;49.380;8.998;2023-06-14T05:04:49;17.20;75.00
26103;DHT22;69760;49.380;8.998;2023-06-14T05:07:15;17.30;73.80
26103;DHT22;69760;49.380;8.998;2023-06-14T05:09:41;17.30;73.30
26103;DHT22;69760;49.380;8.998;2023-06-14T05:12:07;17.50;73.20
26103;DHT22;69760;49.380;8.998;2023-06-14T05:14:35;17.50;74.30
26103;DHT22;69760;49.380;8.998;2023-06-14T05:17:01;17.60;74.40
26103;DHT22;69760;49.380;8.998;2023-06-14T05:19:28;17.60;72.80
26103;DHT22;69760;49.380;8.998;2023-06-14T05:21:53;17.60;73.90
26103;DHT22;69760;49.380;8.998;2023-06-14T05:24:19;17.70;75.10
26103;DHT22;69760;49.380;8.998;2023-06-14T05:26:45;17.70;75.30
26103;DHT22;69760;49.380;8.998;2023-06-14T05:29:11;17.70;75.50
26103;DHT22;69760;49.380;8.998;2023-06-14T05:31:37;17.70;76.10
26103;DHT22;69760;49.380;8.998;2023-06-14T05:34:03;17.70;76.50
26103;DHT22;69760;49.380;8.998;2023-06-14T05:36:29;17.70;74.70
26103;DHT22;69760;49.380;8.998;2023-06-14T05:38:55;17.80;75.10
26103;DHT22;69760;49.380;8.998;2023-06-14T05:41:28;17.80;74.10
26103;DHT22;69760;49.380;8.998;2023-06-14T05:43:55;17.80;75.30
26103;DHT22;69760;49.380;8.998;2023-06-14T05:46:22;17.80;74.00
26103;DHT22;69760;49.380;8.998;2023-06-14T05:48:50;17.90;74.40
26103;DHT22;69760;49.380;8.998;2023-06-14T05:51:16;18.00;72.80
26103;DHT22;69760;49.380;8.998;2023-06-14T05:53:48;18.10;72.80
26103;DHT22;69760;49.380;8.998;2023-06-14T05:56:14;18.10;71.60
26103;DHT22;69760;49.380;8.998;2023-06-14T05:58:40;18.20;71.90
26103;DHT22;69760;49.380;8.998;2023-06-14T06:01:06;18.20;71.60
26103;DHT22;69760;49.380;8.998;2023-06-14T06:03:31;18.20;71.20
26103;DHT22;69760;49.380;8.998;2023-06-14T06:05:58;18.30;70.40
26103;DHT22;69760;49.380;8.998;2023-06-14T06:08:23;18.40;70.60
26103;DHT22;69760;49.380;8.998;2023-06-14T06:10:49;18.40;70.30
26103;DHT22;69760;49.380;8.998;2023-06-14T06:13:15;18.50;71.10
26103;DHT22;69760;49.380;8.998;2023-06-14T06:15:41;18.60;72.40
26103;DHT22;69760;49.380;8.998;2023-06-14T06:18:06;18.60;72.80
26103;DHT22;69760;49.380;8.998;2023-06-14T06:20:32;18.70;70.90
26103;DHT22;69760;49.380;8.998;2023-06-14T06:22:58;18.70;70.80
26103;DHT22;69760;49.380;8.998;2023-06-14T06:25:25;18.80;71.30
26103;DHT22;69760;49.380;8.998;2023-06-14T06:27:51;18.90;70.70
26103;DHT22;69760;49.380;8.998;2023-06-14T06:30:17;18.90;70.20
26103;DHT22;69760;49.380;8.998;2023-06-14T06:32:43;19.00;68.40
26103;DHT22;69760;49.380;8.998;2023-06-14T06:35:09;19.00;69.70
26103;DHT22;69760;49.380;8.998;2023-06-14T06:37:36;19.00;68.40
26103;DHT22;69760;49.380;8.998;2023-06-14T06:40:02;19.10;68.50
26103;DHT22;69760;49.380;8.998;2023-06-14T06:42:34;19.00;68.50
26103;DHT22;69760;49.380;8.998;2023-06-14T06:45:00;19.10;69.30
26103;DHT22;69760;49.380;8.998;2023-06-14T06:47:25;19.20;69.30
26103;DHT22;69760;49.380;8.998;2023-06-14T06:49:51;19.20;68.40
26103;DHT22;69760;49.380;8.998;2023-06-14T06:52:17;19.30;69.30
26103;DHT22;69760;49.380;8.998;2023-06-14T06:54:42;19.30;68.00
26103;DHT22;69760;49.380;8.998;2023-06-14T06:57:08;19.40;68.20
26103;DHT22;69760;49.380;8.998;2023-06-14T06:59:35;19.50;67.50
26103;DHT22;69760;49.380;8.998;2023-06-14T07:02:01;19.50;68.20
26103;DHT22;69760;49.380;8.998;2023-06-14T07:04:26;19.60;66.90
26103;DHT22;69760;49.380;8.998;2023-06-14T07:06:52;19.60;68.10
26103;DHT22;69760;49.380;8.998;2023-06-14T07:09:17;19.70;66.50
26103;DHT22;69760;49.380;8.998;2023-06-14T07:11:46;19.70;67.00
26103;DHT22;69760;49.380;8.998;2023-06-14T07:14:12;19.80;66.70
26103;DHT22;69760;49.380;8.998;2023-06-14T07:16:38;19.80;67.50
26103;DHT22;69760;49.380;8.998;2023-06-14T07:19:04;19.90;68.80
26103;DHT22;69760;49.380;8.998;2023-06-14T07:21:30;20.00;67.40
26103;DHT22;69760;49.380;8.998;2023-06-14T07:23:56;20.00;66.40
26103;DHT22;69760;49.380;8.998;2023-06-14T07:26:22;20.00;67.30
26103;DHT22;69760;49.380;8.998;2023-06-14T07:28:48;20.10;68.10
26103;DHT22;69760;49.380;8.998;2023-06-14T07:31:15;20.20;67.10
26103;DHT22;69760;49.380;8.998;2023-06-14T07:33:41;20.20;66.50
26103;DHT22;69760;49.380;8.998;2023-06-14T07:36:07;20.20;67.00
26103;DHT22;69760;49.380;8.998;2023-06-14T07:38:33;20.20;66.20
26103;DHT22;69760;49.380;8.998;2023-06-14T07:40:59;20.30;67.10
26103;DHT22;69760;49.380;8.998;2023-06-14T07:43:25;20.40;66.30
26103;DHT22;69760;49.380;8.998;2023-06-14T07:45:50;20.50;67.10
26103;DHT22;69760;49.380;8.998;2023-06-14T07:48:16;20.50;65.90
26103;DHT22;69760;49.380;8.998;2023-06-14T07:50:42;20.50;66.30
26103;DHT22;69760;49.380;8.998;2023-06-14T07:53:07;20.60;66.00
26103;DHT22;69760;49.380;8.998;2023-06-14T07:55:33;20.60;66.30
26103;DHT22;69760;49.380;8.998;2023-06-14T07:58:11;20.70;65.70
26103;DHT22;69760;49.380;8.998;2023-06-14T08:00:37;20.70;66.50
26103;DHT22;69760;49.380;8.998;2023-06-14T08:03:03;20.70;65.40
26103;DHT22;69760;49.380;8.998;2023-06-14T08:05:29;20.80;65.60
26103;DHT22;69760;49.380;8.998;2023-06-14T08:07:55;20.90;63.70
26103;DHT22;69760;49.380;8.998;2023-06-14T08:10:22;20.90;64.40
26103;DHT22;69760;49.380;8.998;2023-06-14T08:12:48;21.00;64.40
26103;DHT22;69760;49.380;8.998;2023-06-14T08:15:17;21.00;64.10
26103;DHT22;69760;49.380;8.998;2023-06-14T08:17:43;21.10;64.50
26103;DHT22;69760;49.380;8.998;2023-06-14T08:20:10;21.20;66.70
26103;DHT22;69760;49.380;8.998;2023-06-14T08:22:36;21.30;64.40
26103;DHT22;69760;49.380;8.998;2023-06-14T08:25:03;21.30;63.40
26103;DHT22;69760;49.380;8.998;2023-06-14T08:27:29;21.40;63.80
26103;DHT22;69760;49.380;8.998;2023-06-14T08:29:55;21.50;63.60
26103;DHT22;69760;49.380;8.998;2023-06-14T08:32:21;21.60;64.00
26103;DHT22;69760;49.380;8.998;2023-06-14T08:34:47;21.80;65.20
26103;DHT22;69760;49.380;8.998;2023-06-14T08:37:12;21.90;63.90
26103;DHT22;69760;49.380;8.998;2023-06-14T08:39:38;21.90;63.40
26103;DHT22;69760;49.380;8.998;2023-06-14T08:42:06;22.00;60.90
26103;DHT22;69760;49.380;8.998;2023-06-14T08:44:33;22.10;61.70
26103;DHT22;69760;49.380;8.998;2023-06-14T08:46:59;22.20;62.20
26103;DHT22;69760;49.380;8.998;2023-06-14T08:49:26;22.30;61.10
26103;DHT22;69760;49.380;8.998;2023-06-14T08:51:58;22.30;59.90
26103;DHT22;69760;49.380;8.998;2023-06-14T08:54:28;22.50;60.90
26103;DHT22;69760;49.380;8.998;2023-06-14T08:56:56;22.60;58.80
26103;DHT22;69760;49.380;8.998;2023-06-14T08:59:26;22.60;59.20
26103;DHT22;69760;49.380;8.998;2023-06-14T09:01:52;22.60;59.40
26103;DHT22;69760;49.380;8.998;2023-06-14T09:04:20;22.70;59.80
26103;DHT22;69760;49.380;8.998;2023-06-14T09:06:47;22.80;58.00
26103;DHT22;69760;49.380;8.998;2023-06-14T09:09:19;22.80;57.90
26103;DHT22;69760;49.380;8.998;2023-06-14T09:11:45;22.80;57.70
26103;DHT22;69760;49.380;8.998;2023-06-14T09:14:11;22.90;58.10
26103;DHT22;69760;49.380;8.998;2023-06-14T09:16:36;23.00;56.50
26103;DHT22;69760;49.380;8.998;2023-06-14T09:19:02;23.10;56.50
26103;DHT22;69760;49.380;8.998;2023-06-14T09:21:28;23.10;57.10
26103;DHT22;69760;49.380;8.998;2023-06-14T09:23:59;23.10;57.30
26103;DHT22;69760;49.380;8.998;2023-06-14T09:26:25;23.30;57.40
26103;DHT22;69760;49.380;8.998;2023-06-14T09:28:53;23.40;57.50
26103;DHT22;69760;49.380;8.998;2023-06-14T09:31:19;23.50;58.50
26103;DHT22;69760;49.380;8.998;2023-06-14T09:33:47;23.60;55.00
26103;DHT22;69760;49.380;8.998;2023-06-14T09:36:16;23.60;54.20
26103;DHT22;69760;49.380;8.998;2023-06-14T09:38:58;23.70;55.80
26103;DHT22;69760;49.380;8.998;2023-06-14T09:41:38;23.80;52.20
26103;DHT22;69760;49.380;8.998;2023-06-14T09:44:08;23.90;51.90
26103;DHT22;69760;49.380;8.998;2023-06-14T09:46:35;24.00;54.30
26103;DHT22;69760;49.380;8.998;2023-06-14T09:49:02;24.20;55.10
26103;DHT22;69760;49.380;8.998;2023-06-14T09:51:29;24.30;53.70
26103;DHT22;69760;49.380;8.998;2023-06-14T09:54:02;24.40;54.90
26103;DHT22;69760;49.380;8.998;2023-06-14T09:56:31;24.50;53.30
26103;DHT22;69760;49.380;8.998;2023-06-14T09:58:59;24.60;51.00
26103;DHT22;69760;49.380;8.998;2023-06-14T10:01:26;24.60;51.60
26103;DHT22;69760;49.380;8.998;2023-06-14T10:04:07;24.70;53.10
26103;DHT22;69760;49.380;8.998;2023-06-14T10:06:36;24.70;53.30
26103;DHT22;69760;49.380;8.998;2023-06-14T10:09:04;24.70;52.40
26103;DHT22;69760;49.380;8.998;2023-06-14T10:11:31;24.60;52.30
26103;DHT22;69760;49.380;8.998;2023-06-14T10:13:58;24.70;49.40
26103;DHT22;69760;49.380;8.998;2023-06-14T10:16:32;24.70;52.80
26103;DHT22;69760;49.380;8.998;2023-06-14T10:24:20;24.90;51.70
26103;DHT22;69760;49.380;8.998;2023-06-14T10:26:53;25.00;48.50
26103;DHT22;69760;49.380;8.998;2023-06-14T10:29:18;25.00;49.60
26103;DHT22;69760;49.380;8.998;2023-06-14T10:31:46;24.90;51.10
26103;DHT22;69760;49.380;8.998;2023-06-14T10:34:20;24.90;52.40
26103;DHT22;69760;49.380;8.998;2023-06-14T10:39:28;25.40;51.20
26103;DHT22;69760;49.380;8.998;2023-06-14T10:41:55;25.50;50.10
26103;DHT22;69760;49.380;8.998;2023-06-14T10:46:47;25.60;50.00
26103;DHT22;69760;49.380;8.998;2023-06-14T10:49:16;25.80;49.30
26103;DHT22;69760;49.380;8.998;2023-06-14T10:54:13;26.00;48.90
26103;DHT22;69760;49.380;8.998;2023-06-14T10:56:46;26.10;48.00
26103;DHT22;69760;49.380;8.998;2023-06-14T10:59:13;26.20;49.30
26103;DHT22;69760;49.380;8.998;2023-06-14T11:01:46;26.30;47.80
26103;DHT22;69760;49.380;8.998;2023-06-14T11:04:17;26.30;47.00
26103;DHT22;69760;49.380;8.998;2023-06-14T11:06:49;26.20;47.00
26103;DHT22;69760;49.380;8.998;2023-06-14T11:09:36;26.20;47.30
26103;DHT22;69760;49.380;8.998;2023-06-14T11:12:09;26.00;47.40
26103;DHT22;69760;49.380;8.998;2023-06-14T11:14:36;25.70;47.30
26103;DHT22;69760;49.380;8.998;2023-06-14T11:17:01;25.70;45.80
26103;DHT22;69760;49.380;8.998;2023-06-14T11:19:27;25.80;48.30
26103;DHT22;69760;49.380;8.998;2023-06-14T11:21:54;25.90;49.60
26103;DHT22;69760;49.380;8.998;2023-06-14T11:24:20;26.10;47.80
26103;DHT22;69760;49.380;8.998;2023-06-14T11:26:47;26.30;46.40
26103;DHT22;69760;49.380;8.998;2023-06-14T11:29:14;26.70;47.60
26103;DHT22;69760;49.380;8.998;2023-06-14T11:31:43;26.90;49.30
26103;DHT22;69760;49.380;8.998;2023-06-14T11:34:10;27.00;48.30
26103;DHT22;69760;49.380;8.998;2023-06-14T11:36:35;27.10;45.70
26103;DHT22;69760;49.380;8.998;2023-06-14T11:39:03;27.20;45.40
26103;DHT22;69760;49.380;8.998;2023-06-14T11:41:44;27.40;43.90
26103;DHT22;69760;49.380;8.998;2023-06-14T11:44:10;27.50;45.20
26103;DHT22;69760;49.380;8.998;2023-06-14T11:46:37;27.60;46.90
26103;DHT22;69760;49.380;8.998;2023-06-14T11:49:03;27.80;47.40
26103;DHT22;69760;49.380;8.998;2023-06-14T11:51:31;27.80;45.30
26103;DHT22;69760;49.380;8.998;2023-06-14T11:53:57;27.70;45.60
26103;DHT22;69760;49.380;8.998;2023-06-14T11:56:24;27.60;44.10
26103;DHT22;69760;49.380;8.998;2023-06-14T11:58:52;27.60;43.00
26103;DHT22;69760;49.380;8.998;2023-06-14T12:01:17;27.70;46.00
26103;DHT22;69760;49.380;8.998;2023-06-14T12:03:50;27.50;45.20
26103;DHT22;69760;49.380;8.998;2023-06-14T12:06:16;27.30;45.40
26103;DHT22;69760;49.380;8.998;2023-06-14T12:08:43;27.10;47.80
26103;DHT22;69760;49.380;8.998;2023-06-14T12:11:12;27.00;46.60
26103;DHT22;69760;49.380;8.998;2023-06-14T12:13:39;26.60;46.80
26103;DHT22;69760;49.380;8.998;2023-06-14T12:16:09;26.40;47.60
26103;DHT22;69760;49.380;8.998;2023-06-14T12:18:36;26.30;47.10
26103;DHT22;69760;49.380;8.998;2023-06-14T12:21:04;26.30;47.30
26103;DHT22;69760;49.380;8.998;2023-06-14T12:23:49;26.30;46.00
26103;DHT22;69760;49.380;8.998;2023-06-14T12:26:19;26.50;46.00
26103;DHT22;69760;49.380;8.998;2023-06-14T12:28:46;26.80;45.70
26103;DHT22;69760;49.380;8.998;2023-06-14T12:31:13;27.20;46.30
26103;DHT22;69760;49.380;8.998;2023-06-14T12:33:40;27.60;46.90
26103;DHT22;69760;49.380;8.998;2023-06-14T12:36:10;27.90;45.60
26103;DHT22;69760;49.380;8.998;2023-06-14T12:38:36;27.90;44.70
26103;DHT22;69760;49.380;8.998;2023-06-14T12:41:02;28.00;45.90
26103;DHT22;69760;49.380;8.998;2023-06-14T12:43:28;28.00;44.50
26103;DHT22;69760;49.380;8.998;2023-06-14T12:45:53;28.10;44.70
26103;DHT22;69760;49.380;8.998;2023-06-14T12:48:20;28.10;48.50
26103;DHT22;69760;49.380;8.998;2023-06-14T12:50:46;28.10;46.60
26103;DHT22;69760;49.380;8.998;2023-06-14T12:53:11;28.10;45.00
26103;DHT22;69760;49.380;8.998;2023-06-14T12:55:37;28.00;47.30
26103;DHT22;69760;49.380;8.998;2023-06-14T12:58:03;27.90;47.10
26103;DHT22;69760;49.380;8.998;2023-06-14T13:00:28;27.60;46.00
26103;DHT22;69760;49.380;8.998;2023-06-14T13:02:56;27.30;46.70
26103;DHT22;69760;49.380;8.998;2023-06-14T13:05:22;27.30;47.10
26103;DHT22;69760;49.380;8.998;2023-06-14T13:07:47;27.40;44.70
26103;DHT22;69760;49.380;8.998;2023-06-14T13:10:13;27.70;45.50
26103;DHT22;69760;49.380;8.998;2023-06-14T13:12:38;28.10;44.20
26103;DHT22;69760;49.380;8.998;2023-06-14T13:15:04;28.30;44.40
26103;DHT22;69760;49.380;8.998;2023-06-14T13:17:30;28.20;45.60
26103;DHT22;69760;49.380;8.998;2023-06-14T13:19:58;28.00;46.70
26103;DHT22;69760;49.380;8.998;2023-06-14T13:22:25;27.70;45.40
26103;DHT22;69760;49.380;8.998;2023-06-14T13:24:50;27.60;46.90
26103;DHT22;69760;49.380;8.998;2023-06-14T13:27:16;27.40;45.00
26103;DHT22;69760;49.380;8.998;2023-06-14T13:29:41;27.20;45.50
26103;DHT22;69760;49.380;8.998;2023-06-14T13:32:07;26.90;46.40
26103;DHT22;69760;49.380;8.998;2023-06-14T13:34:33;26.70;47.20
26103;DHT22;69760;49.380;8.998;2023-06-14T13:36:58;26.60;47.60
26103;DHT22;69760;49.380;8.998;2023-06-14T13:39:25;26.60;46.30
26103;DHT22;69760;49.380;8.998;2023-06-14T13:41:50;26.60;47.50
26103;DHT22;69760;49.380;8.998;2023-06-14T13:44:16;26.90;48.10
26103;DHT22;69760;49.380;8.998;2023-06-14T13:46:44;27.20;46.90
26103;DHT22;69760;49.380;8.998;2023-06-14T13:49:10;27.60;46.70
26103;DHT22;69760;49.380;8.998;2023-06-14T13:51:35;28.10;44.50
26103;DHT22;69760;49.380;8.998;2023-06-14T13:54:01;28.40;42.70
26103;DHT22;69760;49.380;8.998;2023-06-14T13:56:27;28.70;43.00
26103;DHT22;69760;49.380;8.998;2023-06-14T13:58:52;28.80;45.50
26103;DHT22;69760;49.380;8.998;2023-06-14T14:01:18;28.80;44.40
26103;DHT22;69760;49.380;8.998;2023-06-14T14:03:46;28.60;45.00
26103;DHT22;69760;49.380;8.998;2023-06-14T14:06:12;28.30;46.30
26103;DHT22;69760;49.380;8.998;2023-06-14T14:08:38;27.80;45.60
26103;DHT22;69760;49.380;8.998;2023-06-14T14:11:05;27.40;46.20
26103;DHT22;69760;49.380;8.998;2023-06-14T14:13:31;27.10;46.80
26103;DHT22;69760;49.380;8.998;2023-06-14T14:15:57;26.80;47.70
26103;DHT22;69760;49.380;8.998;2023-06-14T14:18:22;26.50;45.80
26103;DHT22;69760;49.380;8.998;2023-06-14T14:20:48;26.60;47.10
26103;DHT22;69760;49.380;8.998;2023-06-14T14:23:14;26.90;43.70
26103;DHT22;69760;49.380;8.998;2023-06-14T14:25:40;27.50;45.60
26103;DHT22;69760;49.380;8.998;2023-06-14T14:28:06;28.10;45.70
26103;DHT22;69760;49.380;8.998;2023-06-14T14:30:31;28.10;45.20
26103;DHT22;69760;49.380;8.998;2023-06-14T14:32:58;27.90;44.80
26103;DHT22;69760;49.380;8.998;2023-06-14T14:35:23;27.70;45.90
26103;DHT22;69760;49.380;8.998;2023-06-14T14:37:51;27.70;46.40
26103;DHT22;69760;49.380;8.998;2023-06-14T14:40:17;27.60;47.10
26103;DHT22;69760;49.380;8.998;2023-06-14T14:42:42;27.40;47.40
26103;DHT22;69760;49.380;8.998;2023-06-14T14:45:08;27.30;46.90
26103;DHT22;69760;49.380;8.998;2023-06-14T14:47:34;27.30;45.00
26103;DHT22;69760;49.380;8.998;2023-06-14T14:50:00;27.20;44.70
26103;DHT22;69760;49.380;8.998;2023-06-14T14:52:25;27.40;47.20
26103;DHT22;69760;49.380;8.998;2023-06-14T14:54:52;27.80;43.60
26103;DHT22;69760;49.380;8.998;2023-06-14T14:57:18;28.30;44.40
26103;DHT22;69760;49.380;8.998;2023-06-14T14:59:43;28.70;45.80
26103;DHT22;69760;49.380;8.998;2023-06-14T15:02:09;28.90;44.40
26103;DHT22;69760;49.380;8.998;2023-06-14T15:04:35;29.00;43.90
26103;DHT22;69760;49.380;8.998;2023-06-14T15:07:01;29.00;44.70
26103;DHT22;69760;49.380;8.998;2023-06-14T15:09:26;28.80;45.80
26103;DHT22;69760;49.380;8.998;2023-06-14T15:11:52;28.40;45.50
26103;DHT22;69760;49.380;8.998;2023-06-14T15:14:17;28.30;46.70
26103;DHT22;69760;49.380;8.998;2023-06-14T15:16:43;28.10;46.40
26103;DHT22;69760;49.380;8.998;2023-06-14T15:19:09;28.00;47.20
26103;DHT22;69760;49.380;8.998;2023-06-14T15:21:34;27.70;45.60
26103;DHT22;69760;49.380;8.998;2023-06-14T15:24:00;27.60;47.30
26103;DHT22;69760;49.380;8.998;2023-06-14T15:26:26;27.50;47.10
26103;DHT22;69760;49.380;8.998;2023-06-14T15:28:52;27.40;47.00
26103;DHT22;69760;49.380;8.998;2023-06-14T15:31:18;27.40;46.90
26103;DHT22;69760;49.380;8.998;2023-06-14T15:33:43;27.50;47.80
26103;DHT22;69760;49.380;8.998;2023-06-14T15:36:10;27.50;46.50
26103;DHT22;69760;49.380;8.998;2023-06-14T15:38:36;27.60;46.80
26103;DHT22;69760;49.380;8.998;2023-06-14T15:41:01;27.80;47.00
26103;DHT22;69760;49.380;8.998;2023-06-14T15:43:27;28.30;46.10
26103;DHT22;69760;49.380;8.998;2023-06-14T15:45:52;28.80;44.50